Time;durP1;ratioP1;P1;durP2;ratioP2;P2;SDS_P1;SDS_P2;PMS_P1;PMS_P2;Temp;Humidity;BMP_temperature;BMP_pressure;BME280_temperature;BME280_humidity;BME280_pressure;Samples;Min_cycle;Max_cycle;Signal;HPM_P1;HPM_P2
2022/07/04 00:00:12;;;;;;;1.17;0.55;;;23.10;75.10;;;;;;6217074;28;20049;-81
2022/07/04 00:03:14;;;;;;;3.53;0.50;;;23.10;75.10;;;;;;6224473;28;20052;-84
2022/07/04 00:06:16;;;;;;;0.75;0.30;;;23.00;75.20;;;;;;6219183;28;20062;-81
2022/07/04 00:09:18;;;;;;;1.95;0.50;;;22.90;75.50;;;;;;6217208;28;20385;-81
2022/07/04 00:12:19;;;;;;;13.15;0.80;;;22.80;75.20;;;;;;6221457;28;20053;-80
2022/07/04 00:18:39;;;;;;;1.13;0.43;;;22.80;74.80;;;;;;6245537;28;20045;-80
2022/07/04 00:21:40;;;;;;;1.52;0.50;;;22.70;74.60;;;;;;6241259;28;20046;-79
2022/07/04 00:24:42;;;;;;;1.60;0.50;;;22.70;74.60;;;;;;6245820;28;20048;-83
2022/07/04 00:27:44;;;;;;;3.20;0.50;;;22.70;74.60;;;;;;6247277;28;20042;-83
2022/07/04 00:30:47;;;;;;;7.60;0.65;;;22.70;74.70;;;;;;6237564;28;20042;-79
2022/07/04 00:33:49;;;;;;;1.38;0.43;;;22.60;74.60;;;;;;6237296;28;20045;-81
2022/07/04 00:36:50;;;;;;;5.70;1.00;;;22.60;74.70;;;;;;6243096;28;20045;-79
2022/07/04 00:39:52;;;;;;;8.40;0.65;;;22.50;74.50;;;;;;6247287;28;20053;-80
2022/07/04 00:42:54;;;;;;;1.55;0.60;;;22.40;74.80;;;;;;6240760;28;20049;-80
2022/07/04 00:45:57;;;;;;;1.67;0.77;;;22.40;75.20;;;;;;6242964;28;20052;-81
2022/07/04 00:48:59;;;;;;;0.47;0.38;;;22.30;75.50;;;;;;6249192;28;20105;-81
2022/07/04 00:52:02;;;;;;;1.92;0.68;;;22.30;75.60;;;;;;6242764;28;20050;-81
2022/07/04 00:55:05;;;;;;;1.98;0.73;;;22.20;75.70;;;;;;6247095;28;20056;-82
2022/07/04 00:58:08;;;;;;;3.88;0.73;;;22.20;76.10;;;;;;6247774;28;20095;-80
2022/07/04 01:01:11;;;;;;;1.27;0.60;;;22.20;76.30;;;;;;6249469;28;20060;-81
2022/07/04 01:04:13;;;;;;;1.65;0.50;;;22.10;76.60;;;;;;6255734;28;20041;-85
2022/07/04 01:07:14;;;;;;;1.45;0.70;;;22.10;76.80;;;;;;6246837;28;20046;-83
2022/07/04 01:10:16;;;;;;;2.70;0.75;;;22.10;77.20;;;;;;6244163;28;20046;-83
2022/07/04 01:13:22;;;;;;;4.70;0.40;;;22.10;77.30;;;;;;6244021;28;20045;-82
2022/07/04 01:16:27;;;;;;;3.38;0.77;;;22.00;77.60;;;;;;6242645;28;20063;-80
2022/07/04 01:19:28;;;;;;;2.53;0.60;;;21.90;78.10;;;;;;6246135;28;20042;-81
2022/07/04 01:22:31;;;;;;;1.52;0.60;;;21.90;78.60;;;;;;6253097;28;20052;-79
2022/07/04 01:25:33;;;;;;;2.70;0.50;;;21.80;78.70;;;;;;6245720;28;20063;-80
2022/07/04 01:28:36;;;;;;;1.00;0.60;;;21.80;79.40;;;;;;6250770;28;20053;-79
2022/07/04 01:31:37;;;;;;;1.63;0.70;;;21.70;80.40;;;;;;6237754;28;20064;-80
2022/07/04 01:34:39;;;;;;;3.22;0.60;;;21.70;82.30;;;;;;6247020;28;20046;-81
2022/07/04 01:37:42;;;;;;;2.67;0.55;;;21.50;83.10;;;;;;6235635;28;20045;-80
2022/07/04 01:40:45;;;;;;;2.65;0.77;;;21.40;84.00;;;;;;6237168;28;20049;-81
2022/07/04 01:43:47;;;;;;;3.95;0.65;;;21.20;84.90;;;;;;6236131;28;20060;-80
2022/07/04 01:46:48;;;;;;;4.40;0.60;;;21.10;85.50;;;;;;6231900;28;20421;-80
2022/07/04 01:49:50;;;;;;;1.65;0.55;;;21.00;86.70;;;;;;6247123;28;20046;-81
2022/07/04 01:52:53;;;;;;;1.80;0.65;;;20.80;87.70;;;;;;6235927;28;20045;-79
2022/07/04 01:55:55;;;;;;;3.65;0.70;;;20.80;88.30;;;;;;6242441;28;20049;-80
2022/07/04 01:58:59;;;;;;;2.80;0.60;;;20.60;88.50;;;;;;6232515;28;20038;-80
2022/07/04 02:01:59;;;;;;;4.22;0.57;;;20.60;88.90;;;;;;6240742;28;20050;-80
2022/07/04 02:05:01;;;;;;;1.40;0.60;;;20.50;89.10;;;;;;6248712;28;20045;-80
2022/07/04 02:08:04;;;;;;;4.13;0.80;;;20.50;89.80;;;;;;6239990;28;20053;-79
2022/07/04 02:11:06;;;;;;;1.02;0.32;;;20.40;90.10;;;;;;6245149;28;20062;-80
2022/07/04 02:14:07;;;;;;;2.60;0.68;;;20.30;90.30;;;;;;6238640;28;20041;-81
2022/07/04 02:17:09;;;;;;;4.82;0.80;;;20.30;91.00;;;;;;6235201;28;20041;-80
2022/07/04 02:20:11;;;;;;;5.30;0.77;;;20.30;90.90;;;;;;6248715;28;20056;-80
2022/07/04 02:23:14;;;;;;;2.05;0.70;;;20.20;91.20;;;;;;6237338;28;20057;-83
2022/07/04 02:26:16;;;;;;;2.03;0.68;;;20.20;91.40;;;;;;6244934;28;20415;-80
2022/07/04 02:29:19;;;;;;;1.15;0.80;;;20.10;91.50;;;;;;6240503;28;20046;-80
2022/07/04 02:32:20;;;;;;;2.83;0.80;;;20.10;91.60;;;;;;6232195;28;20129;-78
2022/07/04 02:35:22;;;;;;;5.10;0.70;;;20.10;91.80;;;;;;6244325;28;20045;-79
2022/07/04 02:38:25;;;;;;;2.03;0.73;;;20.10;91.80;;;;;;6234551;28;20524;-80
2022/07/04 02:41:27;;;;;;;2.78;0.63;;;20.10;91.80;;;;;;6238893;28;20518;-79
2022/07/04 02:44:30;;;;;;;2.03;0.80;;;20.10;92.00;;;;;;6234736;28;20414;-80
2022/07/04 02:47:31;;;;;;;0.88;0.77;;;20.10;91.90;;;;;;6240309;28;20967;-82
2022/07/04 02:50:33;;;;;;;3.08;0.90;;;20.10;92.10;;;;;;6243066;28;20057;-81
2022/07/04 02:53:36;;;;;;;4.00;0.88;;;20.00;92.30;;;;;;6234985;28;20058;-81
2022/07/04 02:56:38;;;;;;;6.95;1.15;;;20.00;92.50;;;;;;6245766;28;20064;-80
2022/07/04 02:59:40;;;;;;;2.28;0.73;;;20.00;92.70;;;;;;6245251;28;20049;-81
2022/07/04 03:02:41;;;;;;;1.65;0.98;;;19.90;92.80;;;;;;6252765;28;20050;-80
2022/07/04 03:05:43;;;;;;;3.00;1.10;;;19.90;93.00;;;;;;6246655;28;20503;-82
2022/07/04 03:08:46;;;;;;;4.03;0.85;;;19.90;93.20;;;;;;6231307;28;20049;-83
2022/07/04 03:11:48;;;;;;;3.03;0.65;;;19.90;93.40;;;;;;6245617;28;20045;-80
2022/07/04 03:14:50;;;;;;;2.33;0.90;;;19.90;93.50;;;;;;6238404;28;20049;-79
2022/07/04 03:17:51;;;;;;;3.10;0.90;;;19.80;93.40;;;;;;6242450;28;20056;-80
2022/07/04 03:20:53;;;;;;;1.42;0.60;;;19.80;93.50;;;;;;6241924;28;20054;-80
2022/07/04 03:23:59;;;;;;;3.72;0.88;;;19.70;93.60;;;;;;6244489;28;20054;-80
2022/07/04 03:27:01;;;;;;;2.45;1.35;;;19.60;93.80;;;;;;6238400;28;20046;-79
2022/07/04 03:30:03;;;;;;;3.38;0.95;;;19.60;93.90;;;;;;6232874;28;20049;-79
2022/07/04 03:33:05;;;;;;;2.47;1.23;;;19.60;93.90;;;;;;6232205;28;20049;-80
2022/07/04 03:36:07;;;;;;;5.90;1.10;;;19.60;93.80;;;;;;6232985;28;20311;-79
2022/07/04 03:39:10;;;;;;;1.77;0.82;;;19.60;94.00;;;;;;6231010;28;20503;-82
2022/07/04 03:42:11;;;;;;;1.20;0.68;;;19.70;94.20;;;;;;6238312;28;20057;-84
2022/07/04 03:45:13;;;;;;;9.27;2.13;;;19.70;94.40;;;;;;6235782;28;20042;-81
2022/07/04 03:48:15;;;;;;;22.08;2.17;;;19.70;94.10;;;;;;6236792;28;20495;-83
2022/07/04 03:51:17;;;;;;;6.60;1.45;;;19.70;94.10;;;;;;6237216;28;20053;-82
2022/07/04 03:54:20;;;;;;;2.70;1.35;;;19.80;94.10;;;;;;6234423;28;20121;-79
2022/07/04 03:57:22;;;;;;;4.22;0.75;;;19.80;94.00;;;;;;6236391;28;20053;-80
2022/07/04 04:00:24;;;;;;;1.92;0.90;;;19.70;94.10;;;;;;6240436;28;20053;-79
2022/07/04 04:06:44;;;;;;;3.70;0.60;;;19.60;94.30;;;;;;6235227;28;20049;-85
2022/07/04 04:09:47;;;;;;;1.77;0.80;;;19.60;94.50;;;;;;6230731;28;20050;-79
2022/07/04 04:12:49;;;;;;;2.50;0.88;;;19.60;94.40;;;;;;6240457;28;20415;-78
2022/07/04 04:15:51;;;;;;;1.65;0.80;;;19.70;94.50;;;;;;6237449;28;20056;-78
2022/07/04 04:18:53;;;;;;;0.88;0.80;;;19.90;94.10;;;;;;6233816;28;20037;-78
2022/07/04 04:21:54;;;;;;;2.75;0.70;;;20.40;93.50;;;;;;6230952;28;20423;-81
2022/07/04 04:24:58;;;;;;;4.50;0.85;;;21.40;92.30;;;;;;6228041;28;20095;-78
2022/07/04 04:28:00;;;;;;;1.75;0.80;;;22.20;90.60;;;;;;6236095;28;20061;-78
2022/07/04 04:31:01;;;;;;;7.28;1.13;;;22.10;89.90;;;;;;6236722;28;20050;-78
2022/07/04 04:34:03;;;;;;;2.65;0.80;;;21.80;90.20;;;;;;6234327;28;20054;-78
2022/07/04 04:37:05;;;;;;;1.75;0.70;;;21.50;90.50;;;;;;6234274;28;20419;-81
2022/07/04 04:40:10;;;;;;;3.92;0.95;;;21.40;90.80;;;;;;6240444;28;20050;-78
2022/07/04 04:43:11;;;;;;;3.92;0.95;;;21.70;90.90;;;;;;6233214;28;20056;-79
2022/07/04 04:46:13;;;;;;;4.60;0.85;;;22.70;89.80;;;;;;6233313;28;20054;-84
2022/07/04 04:49:16;;;;;;;2.85;0.95;;;24.50;84.20;;;;;;6233703;28;20041;-81
2022/07/04 04:52:18;;;;;;;1.65;0.98;;;26.10;77.50;;;;;;6234337;28;20055;-79
2022/07/04 04:55:22;;;;;;;4.95;1.13;;;26.80;73.50;;;;;;6233016;28;20423;-79
2022/07/04 04:58:24;;;;;;;3.35;0.80;;;28.00;69.60;;;;;;6257286;23;20068;-78
2022/07/04 05:01:25;;;;;;;13.65;4.35;;;29.10;63.80;;;;;;6233370;28;20414;-79
2022/07/04 05:04:27;;;;;;;4.18;1.30;;;30.00;60.20;;;;;;6240223;28;20049;-78
2022/07/04 05:07:29;;;;;;;3.13;0.82;;;30.80;58.10;;;;;;6227780;28;20060;-78
2022/07/04 05:10:32;;;;;;;1.83;0.80;;;30.90;55.90;;;;;;6201475;28;20050;-79
2022/07/04 05:13:34;;;;;;;2.08;0.70;;;31.40;54.30;;;;;;6207544;28;20692;-79
2022/07/04 05:16:36;;;;;;;4.63;0.52;;;32.00;53.80;;;;;;6206207;28;20058;-79
2022/07/04 05:19:38;;;;;;;2.83;0.70;;;33.00;49.30;;;;;;6205029;28;20562;-78
2022/07/04 05:22:39;;;;;;;6.80;1.48;;;32.00;49.40;;;;;;6208793;28;20042;-79
2022/07/04 05:25:43;;;;;;;2.67;0.52;;;30.30;50.70;;;;;;6204833;28;20053;-79
2022/07/04 05:28:44;;;;;;;4.35;1.02;;;29.10;53.10;;;;;;6210629;28;20526;-82
2022/07/04 05:31:46;;;;;;;2.50;0.60;;;28.50;54.40;;;;;;6205047;28;20051;-79
2022/07/04 05:34:48;;;;;;;3.15;1.00;;;27.70;58.20;;;;;;6211935;28;20053;-79
2022/07/04 05:37:49;;;;;;;1.58;0.40;;;27.50;60.30;;;;;;6203870;28;20045;-81
2022/07/04 05:40:53;;;;;;;5.55;1.00;;;29.00;57.40;;;;;;6205618;28;20116;-78
2022/07/04 05:43:54;;;;;;;4.30;0.77;;;29.40;53.40;;;;;;6208888;28;20060;-79
2022/07/04 05:46:56;;;;;;;4.28;0.50;;;29.60;51.20;;;;;;6207760;28;20058;-80
2022/07/04 05:49:58;;;;;;;1.35;0.40;;;30.00;50.10;;;;;;6213124;28;20064;-78
2022/07/04 05:53:01;;;;;;;5.43;0.47;;;31.40;47.10;;;;;;6203227;28;20515;-78
2022/07/04 05:56:04;;;;;;;2.78;0.45;;;31.90;47.20;;;;;;6214074;28;20069;-79
2022/07/04 05:59:06;;;;;;;1.75;0.50;;;32.30;45.60;;;;;;6200557;28;20050;-79
2022/07/04 06:02:08;;;;;;;0.60;0.32;;;32.20;44.00;;;;;;6207970;28;20130;-78
2022/07/04 06:05:10;;;;;;;3.03;0.70;;;31.70;45.30;;;;;;6207937;28;20046;-78
2022/07/04 06:08:12;;;;;;;3.25;0.50;;;33.00;43.40;;;;;;6203353;28;20059;-80
2022/07/04 06:11:17;;;;;;;4.38;0.77;;;32.70;43.30;;;;;;6203919;28;20047;-79
2022/07/04 06:14:19;;;;;;;6.25;0.55;;;32.60;43.70;;;;;;6207371;28;20141;-79
2022/07/04 06:17:21;;;;;;;1.75;0.80;;;34.30;41.80;;;;;;6204362;28;20416;-78
2022/07/04 06:20:23;;;;;;;0.85;0.47;;;35.40;39.20;;;;;;6201284;28;20180;-78
2022/07/04 06:23:24;;;;;;;4.60;0.50;;;35.30;38.10;;;;;;6203279;28;20056;-78
2022/07/04 06:26:27;;;;;;;0.82;0.43;;;34.40;38.30;;;;;;6201689;28;20046;-80
2022/07/04 06:29:29;;;;;;;1.45;0.50;;;34.40;38.50;;;;;;6210368;28;20371;-78
2022/07/04 06:32:31;;;;;;;3.88;0.70;;;34.20;38.80;;;;;;6203670;28;20050;-78
2022/07/04 06:35:49;;;;;;;3.60;0.90;;;34.40;38.70;;;;;;6205259;28;20062;-79
2022/07/04 06:38:51;;;;;;;8.30;0.95;;;35.00;38.00;;;;;;6207139;28;20408;-79
2022/07/04 06:41:54;;;;;;;1.10;0.40;;;35.60;36.80;;;;;;6207140;28;20050;-79
2022/07/04 06:44:56;;;;;;;1.92;0.40;;;35.50;36.80;;;;;;6205362;28;20043;-78
2022/07/04 06:47:58;;;;;;;3.70;0.70;;;35.90;36.60;;;;;;6207436;28;20414;-78
2022/07/04 06:51:00;;;;;;;1.90;0.68;;;36.10;35.90;;;;;;6204054;28;20046;-79
2022/07/04 06:54:01;;;;;;;4.65;0.98;;;36.00;35.90;;;;;;6212855;28;20045;-79
2022/07/04 06:57:05;;;;;;;4.57;0.68;;;35.40;36.70;;;;;;6202898;28;20057;-80
2022/07/04 07:00:08;;;;;;;1.15;0.38;;;35.30;36.80;;;;;;6210516;28;20459;-79
2022/07/04 07:03:10;;;;;;;2.50;0.60;;;35.30;36.60;;;;;;6209841;28;20056;-79
2022/07/04 07:06:12;;;;;;;2.88;0.40;;;35.60;36.50;;;;;;6199738;28;20050;-79
2022/07/04 07:09:14;;;;;;;3.70;0.60;;;35.90;36.20;;;;;;6209246;28;20034;-79
2022/07/04 07:12:17;;;;;;;0.50;0.30;;;36.70;35.20;;;;;;6210571;28;20049;-83
2022/07/04 07:15:19;;;;;;;2.30;0.47;;;37.20;34.80;;;;;;6213390;28;20057;-79
2022/07/04 07:18:21;;;;;;;1.30;0.40;;;37.30;34.70;;;;;;6213424;28;20043;-78
2022/07/04 07:21:22;;;;;;;0.93;0.50;;;38.00;34.90;;;;;;6181013;28;20061;-79
2022/07/04 07:24:25;;;;;;;2.08;0.40;;;39.30;33.20;;;;;;6206348;28;20050;-79
2022/07/04 07:27:28;;;;;;;5.47;0.80;;;39.90;32.00;;;;;;6218654;28;20466;-78
2022/07/04 07:30:30;;;;;;;1.92;0.40;;;38.00;32.80;;;;;;6214773;28;20042;-81
2022/07/04 07:33:32;;;;;;;1.50;0.68;;;35.40;35.70;;;;;;6205658;28;20069;-80
2022/07/04 07:36:34;;;;;;;0.77;0.20;;;33.80;38.00;;;;;;6215963;28;20062;-81
2022/07/04 07:39:35;;;;;;;2.70;0.38;;;32.70;39.90;;;;;;6205952;28;20066;-79
2022/07/04 07:42:38;;;;;;;4.47;0.77;;;31.90;41.00;;;;;;6212033;28;20058;-80
2022/07/04 07:45:40;;;;;;;6.72;0.60;;;31.30;41.80;;;;;;6211300;28;20042;-80
2022/07/04 07:48:42;;;;;;;2.42;0.45;;;30.80;42.40;;;;;;6217187;28;20535;-86
2022/07/04 07:51:43;;;;;;;3.40;0.55;;;30.40;43.60;;;;;;6210853;28;20082;-79
2022/07/04 07:54:45;;;;;;;1.67;0.50;;;30.10;43.60;;;;;;6210187;28;20046;-84
2022/07/04 07:57:48;;;;;;;1.52;0.45;;;29.50;45.00;;;;;;6212802;28;20046;-79
2022/07/04 08:00:50;;;;;;;1.25;0.60;;;29.30;45.60;;;;;;6206494;28;20046;-80
2022/07/04 08:07:12;;;;;;;1.23;0.40;;;29.20;46.30;;;;;;6209061;28;20038;-79
2022/07/04 08:10:14;;;;;;;3.28;0.60;;;29.40;45.90;;;;;;6209531;28;20443;-81
2022/07/04 08:13:17;;;;;;;3.97;0.63;;;29.70;46.00;;;;;;6219245;28;20042;-80
2022/07/04 08:16:19;;;;;;;3.15;0.45;;;29.90;45.50;;;;;;6215180;28;20050;-79
2022/07/04 08:19:21;;;;;;;2.50;0.38;;;29.80;45.70;;;;;;6211686;28;20046;-80
2022/07/04 08:22:23;;;;;;;2.65;0.70;;;29.90;45.80;;;;;;6208204;28;20050;-79
2022/07/04 08:25:25;;;;;;;2.38;0.88;;;30.10;45.50;;;;;;6209136;28;20053;-78
2022/07/04 08:28:29;;;;;;;1.10;0.50;;;30.30;45.10;;;;;;6210410;28;20050;-79
2022/07/04 08:31:31;;;;;;;3.50;0.60;;;30.40;44.90;;;;;;6203805;28;20052;-80
2022/07/04 08:34:33;;;;;;;6.22;0.60;;;30.50;44.90;;;;;;6214758;28;20046;-79
2022/07/04 08:37:35;;;;;;;4.40;0.70;;;30.70;44.50;;;;;;6204072;28;20811;-83
2022/07/04 08:40:37;;;;;;;6.00;0.90;;;30.70;44.00;;;;;;6208800;28;20054;-78
2022/07/04 08:43:40;;;;;;;1.35;0.43;;;30.80;44.10;;;;;;6207297;28;20058;-79
2022/07/04 08:46:43;;;;;;;6.03;1.00;;;30.90;44.00;;;;;;6199409;28;20065;-86
2022/07/04 08:49:47;;;;;;;2.25;0.55;;;31.00;43.90;;;;;;6202503;28;20041;-83
2022/07/04 08:52:57;;;;;;;2.35;0.50;;;30.90;43.60;;;;;;6211843;28;20041;-79
2022/07/04 08:59:20;;;;;;;2.78;0.57;;;30.60;44.30;;;;;;6203814;28;20038;-79
2022/07/04 09:02:23;;;;;;;1.50;0.50;;;30.60;44.80;;;;;;6208044;28;20046;-82
2022/07/04 09:05:26;;;;;;;6.80;0.77;;;30.50;45.20;;;;;;6208789;28;20050;-80
2022/07/04 09:08:28;;;;;;;4.90;0.80;;;30.30;45.90;;;;;;6212609;28;20057;-79
2022/07/04 09:11:30;;;;;;;1.83;0.50;;;30.20;45.70;;;;;;6203611;28;20050;-80
2022/07/04 09:14:34;;;;;;;3.10;0.75;;;30.30;45.40;;;;;;6203835;28;20065;-79
2022/07/04 09:17:36;;;;;;;4.93;0.77;;;30.50;45.10;;;;;;6206339;28;20047;-83
2022/07/04 09:20:37;;;;;;;3.47;0.50;;;30.60;45.10;;;;;;6203532;28;20498;-79
2022/07/04 09:23:41;;;;;;;2.08;0.60;;;30.60;45.10;;;;;;6217863;28;20046;-78
2022/07/04 09:26:46;;;;;;;3.47;0.50;;;30.70;44.90;;;;;;6214254;28;20491;-83
2022/07/04 09:29:54;;;;;;;2.15;0.50;;;30.80;44.00;;;;;;6198906;28;20038;-78
2022/07/04 09:32:59;;;;;;;;;;;30.90;43.60;;;;;;6206932;28;20580;-79
2022/07/04 09:36:11;;;;;;;5.53;0.75;;;30.70;43.50;;;;;;6203112;28;19961;-81
2022/07/04 09:39:17;;;;;;;1.90;0.55;;;30.70;44.00;;;;;;6195993;28;20416;-82
2022/07/04 09:42:20;;;;;;;1.77;0.45;;;30.80;43.60;;;;;;6196878;28;20042;-78
2022/07/04 09:45:24;;;;;;;3.00;1.17;;;31.20;42.70;;;;;;6198198;28;20401;-79
2022/07/04 09:48:26;;;;;;;4.65;0.82;;;31.30;42.50;;;;;;6198392;28;20057;-81
2022/07/04 09:51:39;;;;;;;4.07;0.98;;;31.50;42.40;;;;;;6199176;28;20046;-81
2022/07/04 09:54:41;;;;;;;1.63;0.55;;;31.40;42.30;;;;;;6198353;28;20136;-78
2022/07/04 09:57:45;;;;;;;4.43;0.88;;;31.30;43.00;;;;;;6197959;28;20053;-78
2022/07/04 10:00:49;;;;;;;3.13;0.60;;;31.40;42.50;;;;;;6198316;28;20050;-78
2022/07/04 10:03:52;;;;;;;2.38;0.60;;;31.50;42.30;;;;;;6199029;28;20085;-79
2022/07/04 10:06:54;;;;;;;2.20;0.60;;;31.60;42.70;;;;;;6197977;28;20050;-81
2022/07/04 10:09:56;;;;;;;3.22;0.40;;;31.90;42.00;;;;;;6198097;28;20053;-78
2022/07/04 10:12:59;;;;;;;3.72;0.70;;;32.10;42.10;;;;;;6198693;28;20050;-79
2022/07/04 10:16:03;;;;;;;1.05;0.47;;;32.90;42.00;;;;;;6198604;28;20057;-79
2022/07/04 10:19:06;;;;;;;4.57;0.95;;;33.90;40.40;;;;;;6197303;28;20057;-78
2022/07/04 10:22:10;;;;;;;3.78;0.57;;;34.60;38.80;;;;;;6197961;28;20047;-78
2022/07/04 10:25:12;;;;;;;3.97;0.70;;;34.70;38.50;;;;;;6197800;28;20504;-80
2022/07/04 10:28:13;;;;;;;1.27;0.30;;;34.50;38.50;;;;;;6197815;28;20050;-78
2022/07/04 10:31:17;;;;;;;1.80;0.60;;;34.10;38.60;;;;;;6196950;28;20046;-78
2022/07/04 10:34:19;;;;;;;2.15;0.60;;;33.80;39.10;;;;;;6197327;28;20527;-78
2022/07/04 10:37:21;;;;;;;2.25;0.30;;;33.50;39.30;;;;;;6203390;28;20052;-80
2022/07/04 10:40:45;;;;;;;1.50;0.52;;;33.40;39.60;;;;;;6204798;28;20059;-80
2022/07/04 10:44:05;;;;;;;4.20;0.60;;;33.20;39.90;;;;;;6205087;28;20062;-80
2022/07/04 10:47:23;;;;;;;12.07;0.90;;;33.00;39.50;;;;;;6204578;28;20046;-80
2022/07/04 10:50:29;;;;;;;5.30;0.88;;;32.70;39.70;;;;;;6204452;28;20085;-80
2022/07/04 10:53:32;;;;;;;2.63;0.60;;;32.50;40.30;;;;;;6205632;28;20054;-80
2022/07/04 10:56:40;;;;;;;3.85;0.50;;;32.50;40.30;;;;;;6208842;28;20061;-80
2022/07/04 10:59:42;;;;;;;3.78;0.80;;;32.60;40.80;;;;;;6208418;28;20058;-80
2022/07/04 11:02:46;;;;;;;1.23;0.75;;;32.70;40.40;;;;;;6208480;28;20053;-79
2022/07/04 11:05:50;;;;;;;3.60;0.70;;;32.90;40.40;;;;;;6207789;28;20053;-80
2022/07/04 11:09:14;;;;;;;4.75;0.95;;;33.10;40.10;;;;;;6207830;28;20042;-79
2022/07/04 11:12:16;;;;;;;1.48;1.08;;;33.40;39.30;;;;;;6197083;28;20127;-80
2022/07/04 11:15:18;;;;;;;3.47;0.73;;;33.70;39.50;;;;;;6209940;28;20053;-79
2022/07/04 11:18:22;;;;;;;3.25;1.10;;;34.00;39.40;;;;;;6213296;28;20521;-79
2022/07/04 11:21:26;;;;;;;3.33;0.80;;;34.40;38.20;;;;;;6218449;28;20141;-80
2022/07/04 11:24:29;;;;;;;2.33;0.65;;;34.40;37.20;;;;;;6218183;28;20054;-80
2022/07/04 11:27:30;;;;;;;1.17;0.52;;;33.90;38.60;;;;;;6215538;28;20424;-80
2022/07/04 11:30:32;;;;;;;1.35;0.30;;;33.60;38.70;;;;;;6216624;28;20049;-80
2022/07/04 11:33:38;;;;;;;4.22;0.30;;;33.70;38.70;;;;;;6207286;28;20527;-79
2022/07/04 11:36:41;;;;;;;2.08;0.43;;;34.10;38.60;;;;;;6207927;28;20419;-80
2022/07/04 11:39:43;;;;;;;1.08;0.43;;;34.50;38.30;;;;;;6210408;28;20483;-80
2022/07/04 11:46:25;;;;;;;4.28;0.50;;;34.80;37.10;;;;;;6208493;28;20468;-80
2022/07/04 11:49:28;;;;;;;3.80;0.50;;;34.80;37.40;;;;;;6212238;28;20057;-80
2022/07/04 11:52:39;;;;;;;2.28;0.57;;;35.00;37.50;;;;;;6210733;28;20046;-80
2022/07/04 11:55:53;;;;;;;5.05;0.52;;;35.20;37.10;;;;;;6209501;28;20116;-80
2022/07/04 11:58:54;;;;;;;4.70;0.40;;;35.40;36.70;;;;;;6211033;28;20077;-79
2022/07/04 12:02:11;;;;;;;2.45;1.02;;;35.60;36.60;;;;;;6208756;28;20182;-80
2022/07/04 12:05:15;;;;;;;5.80;0.80;;;35.70;36.20;;;;;;6218251;28;20045;-79
2022/07/04 12:08:17;;;;;;;3.58;0.40;;;35.50;36.30;;;;;;6215136;28;20042;-81
2022/07/04 12:11:18;;;;;;;1.77;0.40;;;35.40;36.80;;;;;;6214566;28;20038;-81
2022/07/04 12:14:20;;;;;;;1.75;0.40;;;35.50;36.00;;;;;;6208437;28;20416;-80
2022/07/04 12:17:22;;;;;;;0.95;0.35;;;35.30;36.00;;;;;;6218826;28;20045;-80
2022/07/04 12:20:26;;;;;;;0.88;0.30;;;35.00;36.30;;;;;;6213007;28;20064;-80
2022/07/04 12:23:28;;;;;;;4.32;0.40;;;34.50;37.20;;;;;;6213043;28;20091;-80
2022/07/04 12:26:31;;;;;;;3.20;0.50;;;34.30;37.50;;;;;;6213893;28;20065;-80
2022/07/04 12:29:32;;;;;;;4.88;0.45;;;34.30;37.60;;;;;;6213215;28;20054;-80
2022/07/04 12:32:48;;;;;;;4.90;0.98;;;34.30;37.30;;;;;;6214379;28;20046;-81
2022/07/04 12:35:53;;;;;;;3.88;0.40;;;34.60;37.00;;;;;;6209972;28;20474;-80
2022/07/04 12:38:56;;;;;;;3.42;0.60;;;34.80;37.30;;;;;;6212987;28;20144;-81
2022/07/04 12:42:09;;;;;;;1.08;0.30;;;35.10;36.80;;;;;;6208401;28;20050;-80
2022/07/04 12:45:11;;;;;;;3.35;0.50;;;35.50;36.30;;;;;;6211613;28;20061;-81
2022/07/04 12:48:19;;;;;;;0.80;0.25;;;35.50;36.30;;;;;;6207589;28;20046;-81
2022/07/04 12:51:23;;;;;;;4.72;0.50;;;35.60;36.30;;;;;;6211051;28;20034;-82
2022/07/04 12:54:25;;;;;;;0.75;0.20;;;35.60;36.20;;;;;;6209604;28;20046;-80
2022/07/04 12:57:26;;;;;;;3.47;0.60;;;35.20;35.80;;;;;;6208650;28;20065;-80
2022/07/04 13:00:28;;;;;;;1.27;0.40;;;35.10;36.00;;;;;;6207436;28;20054;-80
2022/07/04 13:03:30;;;;;;;1.00;0.20;;;35.30;35.40;;;;;;6208753;28;20065;-81
2022/07/04 13:06:34;;;;;;;5.63;0.32;;;35.60;35.10;;;;;;6205257;28;20940;-80
2022/07/04 13:09:35;;;;;;;1.23;0.30;;;35.90;35.50;;;;;;6210604;28;20057;-81
2022/07/04 13:12:37;;;;;;;3.72;0.30;;;36.00;35.00;;;;;;6210958;28;20038;-81
2022/07/04 13:15:39;;;;;;;2.97;0.30;;;36.20;34.90;;;;;;6213158;28;20042;-81
2022/07/04 13:18:41;;;;;;;7.88;0.40;;;36.40;34.50;;;;;;6216779;28;20056;-81
2022/07/04 13:21:44;;;;;;;3.03;0.20;;;36.50;34.10;;;;;;6207815;28;20050;-81
2022/07/04 13:24:46;;;;;;;0.98;0.32;;;36.50;33.50;;;;;;6208255;28;20038;-81
2022/07/04 13:27:47;;;;;;;1.25;0.40;;;36.60;33.00;;;;;;6205120;28;20045;-80
2022/07/04 13:30:49;;;;;;;2.40;0.20;;;36.80;33.40;;;;;;6205544;28;20038;-81
2022/07/04 13:33:51;;;;;;;1.92;0.30;;;37.00;32.70;;;;;;6207681;28;20066;-81
2022/07/04 13:36:55;;;;;;;4.95;0.32;;;37.10;32.50;;;;;;6206319;28;20042;-80
2022/07/04 13:39:57;;;;;;;5.90;0.70;;;37.40;32.20;;;;;;6206746;28;20061;-81
2022/07/04 13:42:59;;;;;;;2.78;0.35;;;37.40;33.20;;;;;;6207018;28;20046;-81
2022/07/04 13:46:01;;;;;;;1.55;0.47;;;37.40;32.50;;;;;;6204953;28;20049;-80
2022/07/04 13:49:03;;;;;;;3.08;0.40;;;37.40;33.30;;;;;;6206099;28;20368;-80
2022/07/04 13:52:06;;;;;;;4.32;0.40;;;37.50;32.90;;;;;;6208300;28;20038;-81
2022/07/04 13:55:09;;;;;;;2.58;0.40;;;37.30;32.70;;;;;;6207332;28;20085;-82
2022/07/04 13:58:10;;;;;;;1.25;0.52;;;37.00;33.30;;;;;;6204492;28;20042;-81
2022/07/04 14:01:13;;;;;;;1.35;0.15;;;37.00;33.10;;;;;;6204161;28;20501;-81
2022/07/04 14:04:15;;;;;;;0.93;0.28;;;37.10;33.00;;;;;;6209619;28;20511;-80
2022/07/04 14:07:19;;;;;;;2.25;0.43;;;37.20;32.50;;;;;;6205377;28;20042;-80
2022/07/04 14:10:21;;;;;;;4.45;0.40;;;37.30;32.50;;;;;;6206049;28;20435;-80
2022/07/04 14:13:23;;;;;;;0.20;0.10;;;37.20;32.50;;;;;;6204410;28;20065;-80
2022/07/04 14:16:25;;;;;;;2.03;0.22;;;36.90;33.20;;;;;;6206108;28;20058;-80
2022/07/04 14:19:27;;;;;;;1.15;0.28;;;36.50;32.90;;;;;;6213630;28;20057;-80
2022/07/04 14:22:30;;;;;;;1.35;0.25;;;36.10;33.90;;;;;;6205558;28;20524;-81
2022/07/04 14:25:31;;;;;;;0.52;0.22;;;36.00;34.10;;;;;;6207993;28;20050;-80
2022/07/04 14:28:33;;;;;;;7.28;0.65;;;36.00;34.00;;;;;;6211556;28;20511;-80
2022/07/04 14:31:35;;;;;;;0.90;0.40;;;36.20;34.80;;;;;;6208560;28;20414;-81
2022/07/04 14:34:37;;;;;;;0.30;0.20;;;36.40;34.10;;;;;;6208663;28;20059;-81
2022/07/04 14:37:40;;;;;;;2.00;0.52;;;36.60;33.70;;;;;;6212450;28;20050;-81
2022/07/04 14:40:45;;;;;;;2.03;0.32;;;36.80;33.80;;;;;;6212438;28;20049;-81
2022/07/04 14:43:46;;;;;;;3.53;0.50;;;37.00;33.30;;;;;;6211137;28;20488;-80
2022/07/04 14:46:48;;;;;;;1.85;0.57;;;36.90;33.40;;;;;;6211256;28;20038;-80
2022/07/04 14:49:50;;;;;;;3.80;0.60;;;37.00;33.40;;;;;;6207913;28;20038;-80
2022/07/04 14:52:53;;;;;;;1.35;0.40;;;37.20;32.80;;;;;;6203332;28;20136;-80
2022/07/04 14:55:55;;;;;;;1.80;0.50;;;37.20;32.60;;;;;;6209816;28;20056;-80
2022/07/04 14:58:57;;;;;;;2.40;0.40;;;37.20;32.50;;;;;;6209469;28;20046;-80
2022/07/04 15:01:59;;;;;;;3.00;0.57;;;37.20;32.50;;;;;;6204382;28;20547;-80
2022/07/04 15:05:01;;;;;;;1.77;0.30;;;37.00;32.80;;;;;;6204488;28;20047;-80
2022/07/04 15:08:05;;;;;;;2.15;0.40;;;36.70;33.90;;;;;;6205775;28;20542;-80
2022/07/04 15:11:06;;;;;;;3.80;0.65;;;36.10;33.80;;;;;;6208263;28;20053;-80
2022/07/04 15:14:08;;;;;;;2.67;0.22;;;35.60;33.90;;;;;;6204940;28;20042;-80
2022/07/04 15:17:10;;;;;;;0.60;0.20;;;35.20;34.20;;;;;;6204230;28;20050;-80
2022/07/04 15:27:04;;;;;;;3.92;0.60;;;34.00;36.00;;;;;;6134135;29;20413;-79
2022/07/04 15:30:07;;;;;;;2.00;0.35;;;34.10;35.80;;;;;;6201355;28;20042;-80
2022/07/04 15:33:14;;;;;;;1.10;0.40;;;34.10;35.90;;;;;;6209484;28;20050;-80
2022/07/04 15:36:15;;;;;;;0.70;0.30;;;34.20;35.50;;;;;;6207069;28;20050;-79
2022/07/04 15:39:18;;;;;;;1.65;0.30;;;34.50;35.60;;;;;;6205416;28;20049;-81
2022/07/04 15:42:20;;;;;;;0.98;0.43;;;34.70;35.70;;;;;;6208647;28;20045;-81
2022/07/04 15:45:22;;;;;;;0.80;0.20;;;34.50;34.80;;;;;;6211049;28;20056;-80
2022/07/04 15:48:24;;;;;;;1.38;0.30;;;34.30;35.00;;;;;;6211036;28;20058;-80
2022/07/04 15:51:25;;;;;;;1.48;0.55;;;34.30;35.50;;;;;;6210901;28;20080;-81
2022/07/04 15:54:28;;;;;;;1.92;0.30;;;34.10;35.60;;;;;;6210718;28;20061;-81
2022/07/04 15:57:31;;;;;;;1.13;0.10;;;34.10;36.20;;;;;;6207185;28;20129;-81
2022/07/04 16:00:32;;;;;;;4.03;0.65;;;34.40;35.80;;;;;;6206937;28;20054;-80
2022/07/04 16:03:34;;;;;;;0.80;0.30;;;34.70;35.60;;;;;;6210857;28;20050;-80
2022/07/04 16:06:36;;;;;;;1.40;0.30;;;35.00;34.70;;;;;;6205440;28;20104;-80
2022/07/04 16:09:40;;;;;;;0.80;0.38;;;35.20;34.20;;;;;;6208872;28;20124;-80
2022/07/04 16:12:42;;;;;;;2.75;0.40;;;35.40;34.10;;;;;;6211691;28;20051;-81
2022/07/04 16:15:45;;;;;;;0.10;0.10;;;35.40;34.00;;;;;;6209837;28;20058;-81